createdAt,value
2018-06-21T00:00:49.488Z,8.90
2018-06-21T00:01:49.728Z,9.30
2018-06-21T00:02:49.966Z,10.20
2018-06-21T00:03:50.209Z,9.20
2018-06-21T00:04:50.444Z,8.60
2018-06-21T00:05:50.674Z,10.00
2018-06-21T00:06:50.916Z,8.60
2018-06-21T00:07:51.165Z,11.60
2018-06-21T00:08:51.415Z,11.00
2018-06-21T00:09:51.651Z,10.10
2018-06-21T00:10:51.920Z,9.50
2018-06-21T00:11:52.133Z,8.80
2018-06-21T00:12:52.405Z,8.10
2018-06-21T00:13:52.666Z,9.80
2018-06-21T00:14:52.878Z,9.90
2018-06-21T00:15:53.122Z,9.80
2018-06-21T00:16:53.365Z,9.50
2018-06-21T00:17:53.600Z,10.50
2018-06-21T00:18:53.840Z,9.20
2018-06-21T00:19:54.102Z,11.50
2018-06-21T00:20:54.304Z,8.60
2018-06-21T00:21:54.549Z,12.00
2018-06-21T00:22:54.797Z,8.50
2018-06-21T00:23:55.033Z,10.00
2018-06-21T00:24:55.262Z,11.70
2018-06-21T00:25:55.504Z,9.10
2018-06-21T00:26:55.741Z,8.90
2018-06-21T00:27:55.982Z,14.40
2018-06-21T00:28:56.226Z,12.80
2018-06-21T00:29:56.461Z,11.30
2018-06-21T00:30:56.708Z,11.40
2018-06-21T00:31:56.929Z,11.50
2018-06-21T00:32:57.157Z,12.80
2018-06-21T00:33:57.411Z,11.50
2018-06-21T00:34:57.654Z,12.30
2018-06-21T00:35:57.903Z,11.60
2018-06-21T00:36:58.147Z,11.30
2018-06-21T00:37:58.364Z,11.10
2018-06-21T00:38:58.604Z,10.50
2018-06-21T00:39:58.848Z,12.70
2018-06-21T00:40:59.082Z,7.60
2018-06-21T00:41:59.331Z,8.90
2018-06-21T00:42:59.570Z,14.50
2018-06-21T00:43:59.804Z,10.10
2018-06-21T00:45:00.045Z,8.60
2018-06-21T00:46:00.283Z,11.80
2018-06-21T00:47:00.522Z,13.10
2018-06-21T00:48:00.777Z,14.10
2018-06-21T00:49:01.028Z,11.00
2018-06-21T00:50:01.255Z,12.80
2018-06-21T00:51:01.489Z,11.20
2018-06-21T00:52:01.738Z,14.00
2018-06-21T00:53:01.969Z,17.80
2018-06-21T00:54:02.198Z,14.10
2018-06-21T00:55:02.441Z,12.50
2018-06-21T00:56:02.684Z,13.60
2018-06-21T00:57:02.925Z,14.30
2018-06-21T00:58:03.171Z,12.40
2018-06-21T00:59:03.392Z,12.80
2018-06-21T01:00:03.641Z,12.50
2018-06-21T01:01:03.863Z,13.30
2018-06-21T01:02:04.113Z,14.20
2018-06-21T01:03:04.339Z,16.80
2018-06-21T01:04:04.589Z,14.50
2018-06-21T01:05:04.830Z,13.80
2018-06-21T01:06:05.072Z,15.60
2018-06-21T01:07:05.298Z,12.90
2018-06-21T01:08:05.540Z,13.10
2018-06-21T01:09:05.786Z,14.30
2018-06-21T01:10:06.020Z,12.50
2018-06-21T01:11:06.273Z,12.20
2018-06-21T01:12:06.497Z,12.50
2018-06-21T01:13:06.736Z,11.30
2018-06-21T01:14:06.975Z,9.90
2018-06-21T01:15:07.207Z,14.00
2018-06-21T01:16:07.439Z,13.00
2018-06-21T01:17:07.664Z,12.40
2018-06-21T01:18:07.918Z,14.40
2018-06-21T01:19:08.168Z,12.00
2018-06-21T01:20:08.400Z,15.20
2018-06-21T01:21:08.640Z,13.40
2018-06-21T01:22:08.880Z,11.90
2018-06-21T01:23:09.120Z,11.90
2018-06-21T01:24:09.363Z,14.20
2018-06-21T01:25:09.603Z,12.80
2018-06-21T01:26:09.842Z,15.80
2018-06-21T01:27:10.080Z,13.90
2018-06-21T01:28:10.317Z,17.30
2018-06-21T01:29:10.547Z,18.10
2018-06-21T01:30:10.796Z,17.30
2018-06-21T01:31:11.031Z,15.30
2018-06-21T01:32:11.266Z,15.80
2018-06-21T01:33:11.510Z,13.20
2018-06-21T01:34:11.740Z,12.40
2018-06-21T01:35:11.984Z,12.90
2018-06-21T01:36:12.216Z,18.10
2018-06-21T01:37:12.457Z,15.30
2018-06-21T01:38:12.687Z,16.10
2018-06-21T01:39:12.940Z,17.60
2018-06-21T01:40:13.158Z,15.10
2018-06-21T01:41:13.394Z,13.80
2018-06-21T01:42:13.635Z,16.20
2018-06-21T01:43:13.879Z,13.70
2018-06-21T01:44:14.103Z,13.90
2018-06-21T01:45:14.352Z,13.50
2018-06-21T01:46:14.567Z,12.40
2018-06-21T01:47:14.805Z,13.60
2018-06-21T01:48:15.044Z,16.90
2018-06-21T01:49:15.282Z,15.50
2018-06-21T01:50:15.520Z,13.90
2018-06-21T01:51:15.759Z,12.70
2018-06-21T01:52:15.983Z,15.00
2018-06-21T01:53:16.221Z,13.90
2018-06-21T01:54:16.453Z,17.10
2018-06-21T01:55:16.701Z,11.50
2018-06-21T01:56:16.950Z,14.50
2018-06-21T01:57:17.182Z,11.20
2018-06-21T01:58:17.405Z,10.40
2018-06-21T01:59:17.641Z,11.10
2018-06-21T02:00:17.879Z,12.60
2018-06-21T02:01:18.138Z,12.00
2018-06-21T02:02:18.349Z,14.20
2018-06-21T02:03:18.586Z,13.90
2018-06-21T02:04:18.824Z,10.90
2018-06-21T02:05:19.052Z,14.20
2018-06-21T02:06:19.299Z,10.50
2018-06-21T02:07:19.538Z,10.50
2018-06-21T02:08:19.763Z,10.20
2018-06-21T02:09:19.992Z,16.00
2018-06-21T02:10:20.228Z,16.30
2018-06-21T02:11:20.468Z,16.80
2018-06-21T02:12:20.713Z,17.60
2018-06-21T02:13:20.924Z,15.20
2018-06-21T02:14:21.158Z,15.20
2018-06-21T02:15:21.392Z,16.40
2018-06-21T02:16:21.638Z,16.70
2018-06-21T02:17:21.883Z,16.90
2018-06-21T02:18:22.108Z,17.50
2018-06-21T02:19:22.357Z,18.20
2018-06-21T02:20:22.597Z,16.70
2018-06-21T02:21:22.827Z,19.30
2018-06-21T02:22:23.080Z,18.70
2018-06-21T02:23:23.307Z,18.20
2018-06-21T02:24:23.553Z,18.40
2018-06-21T02:25:23.777Z,16.10
2018-06-21T02:26:24.015Z,19.70
2018-06-21T02:27:24.277Z,16.20
2018-06-21T02:28:24.517Z,17.80
2018-06-21T02:29:24.759Z,17.20
2018-06-21T02:30:25.002Z,18.90
2018-06-21T02:31:25.248Z,16.60
2018-06-21T02:32:25.463Z,16.30
2018-06-21T02:33:25.699Z,16.50
2018-06-21T02:34:26.003Z,16.50
2018-06-21T02:35:26.165Z,15.90
2018-06-21T02:36:26.397Z,17.90
2018-06-21T02:37:26.646Z,15.80
2018-06-21T02:38:26.871Z,14.40
2018-06-21T02:39:27.131Z,20.90
2018-06-21T02:40:27.349Z,17.30
2018-06-21T02:41:27.575Z,17.70
2018-06-21T02:42:27.817Z,16.10
2018-06-21T02:43:28.051Z,19.80
2018-06-21T02:44:28.292Z,18.20
2018-06-21T02:45:28.523Z,17.50
2018-06-21T02:46:28.788Z,18.70
2018-06-21T02:47:28.992Z,16.80
2018-06-21T02:48:29.211Z,15.20
2018-06-21T02:49:29.454Z,14.30
2018-06-21T02:50:29.677Z,13.70
2018-06-21T02:51:29.935Z,14.40
2018-06-21T02:52:30.150Z,15.60
2018-06-21T02:53:30.400Z,16.20
2018-06-21T02:54:30.637Z,15.30
2018-06-21T02:55:30.869Z,13.70
2018-06-21T02:56:31.109Z,14.70
2018-06-21T02:57:31.355Z,14.90
2018-06-21T02:58:31.584Z,17.20
2018-06-21T02:59:31.832Z,15.00
2018-06-21T03:00:32.041Z,17.80
2018-06-21T03:01:32.276Z,17.90
2018-06-21T03:02:32.515Z,15.50
2018-06-21T03:03:32.745Z,18.20
2018-06-21T03:04:32.968Z,17.60
2018-06-21T03:05:33.211Z,15.00
2018-06-21T03:06:33.457Z,16.30
2018-06-21T03:07:33.687Z,20.20
2018-06-21T03:08:33.936Z,17.90
2018-06-21T03:09:34.177Z,16.20
2018-06-21T03:10:34.407Z,17.20
2018-06-21T03:11:34.650Z,15.40
2018-06-21T03:12:34.884Z,15.20
2018-06-21T03:13:35.129Z,14.90
2018-06-21T03:14:35.366Z,16.30
2018-06-21T03:15:35.609Z,16.50
2018-06-21T03:16:35.845Z,17.40
2018-06-21T03:17:36.093Z,18.70
2018-06-21T03:18:36.335Z,20.20
2018-06-21T03:19:36.581Z,14.90
2018-06-21T03:20:36.838Z,17.90
2018-06-21T03:21:37.039Z,18.60
2018-06-21T03:22:37.281Z,14.70
2018-06-21T03:23:37.525Z,14.60
2018-06-21T03:24:37.767Z,13.10
2018-06-21T03:25:38.011Z,12.70
2018-06-21T03:26:38.252Z,13.50
2018-06-21T03:27:38.509Z,14.90
2018-06-21T03:28:38.731Z,14.70
2018-06-21T03:29:38.988Z,19.70
2018-06-21T03:30:39.208Z,12.80
2018-06-21T03:31:39.444Z,13.50
2018-06-21T03:32:39.679Z,15.40
2018-06-21T03:33:39.915Z,13.80
2018-06-21T03:34:40.160Z,14.50
2018-06-21T03:35:40.402Z,14.30
2018-06-21T03:36:40.644Z,14.30
2018-06-21T03:37:40.886Z,12.80
2018-06-21T03:38:41.127Z,14.90
2018-06-21T03:39:41.362Z,16.70
2018-06-21T03:40:41.604Z,11.80
2018-06-21T03:41:41.841Z,13.30
2018-06-21T03:42:42.079Z,15.40
2018-06-21T03:43:42.321Z,15.30
2018-06-21T03:44:42.567Z,15.80
2018-06-21T03:45:42.798Z,16.80
2018-06-21T03:46:43.038Z,19.10
2018-06-21T03:47:43.280Z,19.40
2018-06-21T03:48:43.523Z,20.30
2018-06-21T03:49:43.764Z,19.10
2018-06-21T03:50:44.008Z,16.10
2018-06-21T03:51:44.243Z,20.40
2018-06-21T03:52:44.477Z,17.60
2018-06-21T03:53:44.713Z,15.60
2018-06-21T03:54:44.954Z,16.50
2018-06-21T03:55:45.184Z,19.90
2018-06-21T03:56:45.422Z,15.30
2018-06-21T03:57:45.653Z,14.40
2018-06-21T03:58:45.897Z,14.40
2018-06-21T03:59:46.135Z,15.80
2018-06-21T04:00:46.369Z,14.80
2018-06-21T04:01:46.608Z,15.00
2018-06-21T04:02:46.849Z,12.10
2018-06-21T04:03:47.067Z,15.80
2018-06-21T04:04:47.329Z,17.10
2018-06-21T04:05:47.570Z,14.70
2018-06-21T04:06:47.804Z,18.00
2018-06-21T04:07:48.043Z,14.20
2018-06-21T04:08:48.270Z,14.90
2018-06-21T04:09:48.520Z,13.70
2018-06-21T04:10:48.896Z,13.60
2018-06-21T04:11:49.428Z,12.00
2018-06-21T04:12:49.526Z,15.00
2018-06-21T04:13:49.754Z,13.30
2018-06-21T04:14:50.004Z,16.20
2018-06-21T04:15:50.254Z,12.20
2018-06-21T04:16:50.476Z,13.60
2018-06-21T04:17:50.735Z,12.10
2018-06-21T04:18:50.990Z,12.80
2018-06-21T04:19:51.217Z,12.20
2018-06-21T04:20:51.467Z,11.70
2018-06-21T04:21:51.698Z,13.50
2018-06-21T04:22:51.952Z,14.20
2018-06-21T04:23:52.337Z,12.00
2018-06-21T04:24:52.584Z,10.70
2018-06-21T04:25:52.825Z,11.00
2018-06-21T04:26:53.072Z,12.20
2018-06-21T04:27:53.325Z,12.50
2018-06-21T04:28:53.547Z,12.50
2018-06-21T04:29:53.778Z,12.40
2018-06-21T04:30:54.033Z,12.30
2018-06-21T04:31:54.277Z,14.70
2018-06-21T04:32:54.495Z,12.40
2018-06-21T04:33:54.756Z,15.10
2018-06-21T04:34:54.973Z,13.50
2018-06-21T04:35:55.205Z,11.80
2018-06-21T04:36:55.447Z,14.10
2018-06-21T04:37:55.741Z,14.40
2018-06-21T04:38:55.936Z,14.30
2018-06-21T04:39:56.179Z,12.70
2018-06-21T04:40:56.412Z,12.70
2018-06-21T04:41:56.643Z,15.50
2018-06-21T04:42:56.882Z,11.30
2018-06-21T04:43:57.122Z,11.70
2018-06-21T04:44:57.369Z,13.30
2018-06-21T04:45:57.721Z,12.60
2018-06-21T04:46:57.853Z,12.80
2018-06-21T04:47:58.098Z,16.00
2018-06-21T04:48:58.347Z,11.60
2018-06-21T04:49:58.578Z,12.20
2018-06-21T04:50:58.824Z,13.20
2018-06-21T04:51:59.061Z,11.60
2018-06-21T04:52:59.310Z,13.00
2018-06-21T04:53:59.541Z,13.10
2018-06-21T04:54:59.797Z,14.10
2018-06-21T04:56:00.032Z,12.60
2018-06-21T04:57:00.246Z,11.10
2018-06-21T04:58:00.489Z,13.20
2018-06-21T04:59:00.740Z,10.70
2018-06-21T05:00:00.994Z,11.90
2018-06-21T05:01:01.222Z,13.60
2018-06-21T05:02:01.451Z,10.60
2018-06-21T05:03:01.691Z,11.20
2018-06-21T05:04:01.932Z,10.30
2018-06-21T05:05:02.181Z,13.40
2018-06-21T05:06:02.410Z,14.90
2018-06-21T05:07:02.660Z,10.90
2018-06-21T05:08:02.888Z,12.20
2018-06-21T05:09:03.138Z,10.40
2018-06-21T05:10:03.388Z,9.50
2018-06-21T05:11:03.626Z,12.30
2018-06-21T05:12:04.179Z,11.20
2018-06-21T05:13:04.191Z,10.00
2018-06-21T05:14:04.445Z,13.00
2018-06-21T05:15:04.677Z,10.60
2018-06-21T05:16:04.919Z,12.50
2018-06-21T05:17:05.145Z,9.50
2018-06-21T05:18:05.398Z,11.60
2018-06-21T05:19:05.642Z,12.50
2018-06-21T05:20:05.885Z,9.40
2018-06-21T05:21:06.123Z,10.10
2018-06-21T05:22:06.360Z,11.50
2018-06-21T05:23:06.600Z,12.90
2018-06-21T05:24:06.848Z,10.90
2018-06-21T05:25:07.120Z,9.90
2018-06-21T05:26:07.335Z,10.30
2018-06-21T05:27:07.582Z,10.00
2018-06-21T05:28:07.825Z,9.80
2018-06-21T05:29:08.067Z,9.10
2018-06-21T05:30:08.313Z,11.30
2018-06-21T05:31:08.544Z,9.90
2018-06-21T05:32:08.780Z,9.40
2018-06-21T05:33:09.018Z,9.30
2018-06-21T05:34:09.247Z,9.00
2018-06-21T05:35:09.493Z,9.70
2018-06-21T05:36:09.735Z,9.70
2018-06-21T05:37:09.983Z,9.70
2018-06-21T05:38:10.226Z,8.60
2018-06-21T05:39:10.519Z,12.10
2018-06-21T05:40:10.702Z,11.20
2018-06-21T05:41:10.951Z,13.30
2018-06-21T05:42:11.192Z,11.60
2018-06-21T05:43:11.418Z,8.50
2018-06-21T05:44:20.317Z,8.90
2018-06-21T05:45:12.049Z,12.00
2018-06-21T05:46:12.296Z,10.60
2018-06-21T05:47:12.539Z,9.30
2018-06-21T05:48:12.787Z,10.50
2018-06-21T05:49:13.025Z,11.10
2018-06-21T05:50:13.330Z,9.70
2018-06-21T05:51:22.144Z,8.20
2018-06-21T05:52:13.902Z,7.60
2018-06-21T05:53:14.146Z,10.60
2018-06-21T05:54:14.385Z,11.00
2018-06-21T05:55:14.615Z,7.90
2018-06-21T05:56:14.859Z,7.30
2018-06-21T05:57:15.107Z,8.60
2018-06-21T05:58:15.339Z,7.90
2018-06-21T05:59:15.582Z,7.70
2018-06-21T06:00:15.824Z,7.40
2018-06-21T06:01:16.066Z,6.80
2018-06-21T06:02:16.302Z,7.00
2018-06-21T06:03:16.564Z,7.40
2018-06-21T06:04:16.796Z,9.20
2018-06-21T06:05:17.013Z,8.40
2018-06-21T06:06:17.248Z,7.10
2018-06-21T06:07:17.492Z,8.50
2018-06-21T06:08:17.755Z,6.80
2018-06-21T06:09:25.588Z,6.90
2018-06-21T06:10:18.245Z,7.20
2018-06-21T06:11:18.499Z,8.30
2018-06-21T06:12:18.741Z,6.20
2018-06-21T06:13:18.984Z,7.10
2018-06-21T06:14:27.881Z,6.80
2018-06-21T06:15:19.622Z,7.20
2018-06-21T06:16:27.502Z,8.30
2018-06-21T06:17:20.177Z,7.30
2018-06-21T06:18:20.393Z,7.70
2018-06-21T06:19:20.630Z,8.00
2018-06-21T06:20:20.884Z,7.90
2018-06-21T06:21:21.116Z,7.80
2018-06-21T06:22:21.347Z,5.80
2018-06-21T06:23:21.610Z,7.20
2018-06-21T06:24:21.841Z,6.90
2018-06-21T06:25:22.075Z,6.90
2018-06-21T06:26:22.331Z,6.40
2018-06-21T06:27:22.577Z,8.70
2018-06-21T06:28:22.828Z,7.00
2018-06-21T06:29:23.069Z,8.10
2018-06-21T06:30:31.939Z,6.00
2018-06-21T06:31:23.704Z,5.20
2018-06-21T06:32:32.670Z,7.10
2018-06-21T06:33:32.962Z,5.40
2018-06-21T06:34:33.410Z,7.20
2018-06-21T06:35:25.157Z,5.30
2018-06-21T06:36:34.094Z,9.20
2018-06-21T06:37:34.328Z,7.80
2018-06-21T06:38:33.814Z,5.10
2018-06-21T06:39:35.104Z,5.40
2018-06-21T06:40:34.530Z,5.60
2018-06-21T06:41:36.777Z,6.70
2018-06-21T06:42:36.989Z,5.70
2018-06-21T06:43:36.276Z,6.50
2018-06-21T06:44:36.551Z,14.60
2018-06-21T06:45:36.844Z,6.50
2018-06-21T06:46:28.673Z,6.80
2018-06-21T06:47:37.609Z,8.40
2018-06-21T06:48:37.929Z,4.90
2018-06-21T06:49:38.273Z,6.00
2018-06-21T06:50:37.630Z,6.90
2018-06-21T06:51:38.938Z,6.10
2018-06-21T06:52:38.383Z,4.60
2018-06-21T06:53:39.611Z,6.20
2018-06-21T06:54:31.397Z,6.60
2018-06-21T06:55:31.607Z,7.50
2018-06-21T06:56:31.850Z,7.80
2018-06-21T06:57:39.776Z,7.80
2018-06-21T06:58:41.154Z,13.30
2018-06-21T06:59:41.489Z,8.80
2018-06-21T07:00:42.838Z,8.00
2018-06-21T07:01:41.073Z,8.50
2018-06-21T07:02:43.531Z,8.50
2018-06-21T07:05:36.868Z,7.40
2018-06-21T07:06:08.508Z,7.50
2018-06-21T07:07:08.608Z,7.90
2018-06-21T07:08:08.880Z,9.40
2018-06-21T07:09:16.957Z,10.10
2018-06-21T07:10:09.364Z,9.50
2018-06-21T07:11:18.140Z,7.30
2018-06-21T07:12:19.566Z,8.90
2018-06-21T07:13:19.885Z,8.60
2018-06-21T07:14:19.138Z,9.60
2018-06-21T07:15:20.670Z,8.70
2018-06-21T07:16:18.724Z,9.60
2018-06-21T07:17:11.403Z,8.00
2018-06-21T07:18:11.649Z,8.90
2018-06-21T07:19:11.891Z,10.40
2018-06-21T07:20:12.132Z,13.10
2018-06-21T07:21:12.381Z,9.00
2018-06-21T07:22:12.632Z,6.80
2018-06-21T07:23:12.873Z,12.50
2018-06-21T07:24:13.105Z,9.50
2018-06-21T07:25:13.345Z,9.70
2018-06-21T07:26:13.593Z,8.20
2018-06-21T07:27:13.907Z,7.80
2018-06-21T07:28:14.088Z,12.10
2018-06-21T07:29:14.337Z,11.20
2018-06-21T07:30:14.594Z,9.00
2018-06-21T07:31:14.834Z,6.80
2018-06-21T07:32:15.075Z,8.20
2018-06-21T07:33:15.306Z,9.90
2018-06-21T07:34:15.541Z,11.20
2018-06-21T07:35:15.781Z,10.80
2018-06-21T07:36:16.016Z,8.90
2018-06-21T07:37:16.265Z,10.20
2018-06-21T07:38:16.517Z,8.10
2018-06-21T07:39:16.772Z,7.20
2018-06-21T07:40:17.030Z,9.00
2018-06-21T07:41:17.279Z,10.50
2018-06-21T07:42:17.511Z,6.40
2018-06-21T07:43:17.763Z,7.50
2018-06-21T07:44:18.032Z,7.70
2018-06-21T07:45:18.301Z,9.40
2018-06-21T07:46:18.534Z,7.60
2018-06-21T07:47:18.770Z,8.80
2018-06-21T07:48:19.027Z,7.30
2018-06-21T07:49:19.266Z,9.80
2018-06-21T07:50:19.504Z,8.40
2018-06-21T07:51:19.757Z,10.00
2018-06-21T07:52:20.005Z,6.20
2018-06-21T07:53:20.263Z,6.90
2018-06-21T07:54:20.482Z,9.50
2018-06-21T07:55:20.734Z,6.90
2018-06-21T07:56:20.995Z,4.60
2018-06-21T07:57:21.224Z,7.70
2018-06-21T07:58:21.482Z,6.40
2018-06-21T07:59:21.718Z,8.50
2018-06-21T08:00:21.989Z,7.10
2018-06-21T08:01:22.235Z,5.20
2018-06-21T08:02:22.497Z,4.70
2018-06-21T08:03:22.731Z,4.00
2018-06-21T08:04:22.978Z,6.80
2018-06-21T08:05:23.209Z,8.40
2018-06-21T08:06:23.440Z,5.10
2018-06-21T08:07:23.709Z,4.40
2018-06-21T08:08:23.947Z,7.00
2018-06-21T08:09:24.206Z,5.60
2018-06-21T08:10:24.433Z,5.70
2018-06-21T08:11:24.664Z,5.40
2018-06-21T08:12:24.914Z,4.50
2018-06-21T08:13:25.174Z,9.70
2018-06-21T08:14:25.411Z,5.20
2018-06-21T08:15:25.644Z,4.70
2018-06-21T08:16:25.889Z,7.20
2018-06-21T08:17:26.115Z,2.70
2018-06-21T08:18:26.391Z,6.70
2018-06-21T08:19:26.637Z,4.70
2018-06-21T08:20:26.867Z,2.80
2018-06-21T08:21:27.121Z,3.90
2018-06-21T08:22:27.357Z,2.60
2018-06-21T08:23:27.598Z,3.20
2018-06-21T08:24:27.838Z,3.70
2018-06-21T08:25:28.125Z,4.10
2018-06-21T08:26:37.126Z,4.60
2018-06-21T08:27:38.008Z,2.90
2018-06-21T08:28:29.156Z,5.80
2018-06-21T08:29:39.059Z,6.20
2018-06-21T08:30:39.585Z,6.00
2018-06-21T08:31:38.862Z,2.90
2018-06-21T08:32:30.269Z,4.70
2018-06-21T08:33:39.346Z,5.90
2018-06-21T08:34:40.789Z,5.20
2018-06-21T08:35:41.198Z,6.40
2018-06-21T08:36:31.525Z,6.60
2018-06-21T08:37:31.758Z,6.50
2018-06-21T08:38:32.017Z,5.90
2018-06-21T08:39:41.906Z,7.60
2018-06-21T08:40:32.561Z,7.50
2018-06-21T08:41:32.722Z,3.60
2018-06-21T08:42:42.616Z,6.60
2018-06-21T08:43:33.264Z,6.90
2018-06-21T08:44:33.539Z,3.80
2018-06-21T08:45:42.407Z,3.80
2018-06-21T08:46:42.835Z,4.10
2018-06-21T08:47:43.147Z,4.30
2018-06-21T08:48:34.908Z,3.00
2018-06-21T08:49:35.102Z,2.30
2018-06-21T08:50:44.040Z,3.50
2018-06-21T08:51:44.383Z,2.70
2018-06-21T08:52:36.249Z,3.70
2018-06-21T08:53:45.077Z,3.00
2018-06-21T08:54:45.395Z,3.60
2018-06-21T08:55:37.137Z,2.90
2018-06-21T08:56:37.351Z,3.80
2018-06-21T08:57:37.605Z,3.40
2018-06-21T08:58:37.839Z,6.30
2018-06-21T08:59:38.094Z,3.40
2018-06-21T09:00:38.321Z,4.40
2018-06-21T09:01:47.258Z,3.20
2018-06-21T09:02:38.993Z,2.60
2018-06-21T09:03:39.227Z,5.70
2018-06-21T09:04:48.116Z,4.60
2018-06-21T09:05:39.840Z,4.60
2018-06-21T09:06:40.107Z,5.60
2018-06-21T09:07:40.376Z,4.10
2018-06-21T09:08:40.596Z,2.80
2018-06-21T09:09:48.562Z,2.30
2018-06-21T09:10:49.800Z,1.90
2018-06-21T09:11:51.328Z,2.60
2018-06-21T09:12:50.515Z,4.10
2018-06-21T09:13:42.215Z,3.60
2018-06-21T09:14:50.093Z,3.50
2018-06-21T09:15:42.833Z,5.20
2018-06-21T09:16:51.663Z,6.10
2018-06-21T09:17:52.079Z,4.00
2018-06-21T09:18:43.553Z,4.60
2018-06-21T09:19:43.855Z,6.80
2018-06-21T09:20:44.030Z,3.70
2018-06-21T09:21:52.904Z,3.80
2018-06-21T09:22:44.675Z,2.40
2018-06-21T09:23:44.901Z,2.70
2018-06-21T09:24:45.174Z,4.50
2018-06-21T09:25:55.050Z,3.90
2018-06-21T09:26:45.654Z,3.00
2018-06-21T09:27:54.484Z,3.30
2018-06-21T09:28:53.927Z,4.80
2018-06-21T09:29:46.601Z,6.20
2018-06-21T09:30:54.472Z,6.90
2018-06-21T09:31:55.756Z,4.30
2018-06-21T09:32:47.547Z,2.70
2018-06-21T09:33:47.770Z,4.70
2018-06-21T09:34:48.023Z,3.60
2018-06-21T09:35:56.893Z,4.40
2018-06-21T09:36:48.672Z,5.50
2018-06-21T09:37:57.505Z,3.20
2018-06-21T09:38:57.914Z,6.80
2018-06-21T09:39:58.263Z,4.10
2018-06-21T09:40:50.045Z,5.30
2018-06-21T09:41:57.918Z,3.50
2018-06-21T09:42:59.337Z,2.60
2018-06-21T09:44:03.829Z,3.60
2018-06-21T09:44:59.964Z,3.00
2018-06-21T09:45:51.717Z,3.40
2018-06-21T09:46:51.970Z,5.10
2018-06-21T09:48:00.813Z,4.80
2018-06-21T09:48:52.577Z,4.20
2018-06-21T09:50:00.620Z,8.20
2018-06-21T09:51:01.825Z,5.50
2018-06-21T09:52:02.194Z,3.50
2018-06-21T09:53:02.623Z,6.50
2018-06-21T09:54:02.099Z,3.40
2018-06-21T09:54:54.664Z,3.60
2018-06-21T09:55:54.906Z,3.40
2018-06-21T09:56:55.166Z,5.50
2018-06-21T09:57:55.399Z,9.70
2018-06-21T09:58:55.662Z,10.70
2018-06-21T09:59:55.900Z,8.90
2018-06-21T10:00:56.127Z,9.80
2018-06-21T10:02:05.032Z,10.50
2018-06-21T10:03:05.417Z,5.60
2018-06-21T10:03:56.961Z,6.20
2018-06-21T10:04:57.208Z,6.90
2018-06-21T10:05:57.459Z,4.90
2018-06-21T10:06:57.700Z,6.50
2018-06-21T10:07:57.950Z,7.40
2018-06-21T10:08:58.195Z,7.00
2018-06-21T10:10:07.072Z,7.60
2018-06-21T10:11:07.502Z,4.60
2018-06-21T10:12:08.890Z,10.80
2018-06-21T10:13:08.236Z,5.50
2018-06-21T10:13:59.884Z,4.90
2018-06-21T10:15:00.085Z,4.90
2018-06-21T10:16:09.030Z,9.00
2018-06-21T10:17:00.613Z,6.00
2018-06-21T10:18:09.449Z,6.90
2018-06-21T10:19:08.983Z,5.20
2018-06-21T10:20:10.111Z,7.00
2018-06-21T10:21:10.498Z,5.00
2018-06-21T10:22:10.873Z,6.70
2018-06-21T10:23:02.672Z,5.00
2018-06-21T10:24:02.891Z,4.90
2018-06-21T10:25:11.787Z,4.10
2018-06-21T10:26:03.604Z,5.20
2018-06-21T10:27:12.395Z,5.50
2018-06-21T10:28:12.808Z,4.90
2018-06-21T10:29:13.194Z,5.30
2018-06-21T10:30:13.576Z,5.70
2018-06-21T10:31:13.935Z,5.30
2018-06-21T10:32:05.714Z,10.40
2018-06-21T10:33:05.929Z,5.00
2018-06-21T10:34:06.141Z,5.30
2018-06-21T10:35:14.034Z,6.10
2018-06-21T10:36:06.689Z,6.50
2018-06-21T10:37:06.936Z,5.20
2018-06-21T10:38:07.186Z,5.50
2018-06-21T10:39:07.415Z,5.00
2018-06-21T10:40:07.657Z,4.00
2018-06-21T10:41:07.901Z,4.90
2018-06-21T10:42:08.149Z,5.20
2018-06-21T10:43:16.085Z,4.70
2018-06-21T10:44:17.528Z,5.40
2018-06-21T10:45:17.697Z,5.60
2018-06-21T10:46:18.144Z,6.00
2018-06-21T10:47:18.204Z,6.60
2018-06-21T10:48:18.661Z,5.50
2018-06-21T10:49:19.009Z,6.20
2018-06-21T10:50:19.408Z,5.60
2018-06-21T10:51:19.865Z,5.80
2018-06-21T10:52:19.962Z,5.70
2018-06-21T10:53:20.447Z,5.10
2018-06-21T10:54:20.739Z,5.80
2018-06-21T10:55:21.114Z,5.30
2018-06-21T10:56:21.524Z,5.00
2018-06-21T10:57:21.887Z,5.40
2018-06-21T10:58:22.253Z,4.80
2018-06-21T10:59:22.722Z,5.30
2018-06-21T11:00:24.101Z,4.70
2018-06-21T11:01:23.336Z,5.40
2018-06-21T11:02:23.715Z,5.60
2018-06-21T11:03:24.117Z,4.70
2018-06-21T11:04:24.606Z,5.20
2018-06-21T11:05:24.853Z,7.10
2018-06-21T11:06:25.359Z,5.10
2018-06-21T11:07:26.647Z,5.90
2018-06-21T11:08:25.940Z,5.70
2018-06-21T11:09:26.312Z,5.90
2018-06-21T11:10:26.882Z,6.10
2018-06-21T11:11:26.961Z,7.80
2018-06-21T11:12:27.354Z,6.10
2018-06-21T11:13:19.166Z,5.20
2018-06-21T11:14:28.023Z,8.10
2018-06-21T11:15:28.197Z,6.00
2018-06-21T11:16:28.625Z,7.00
2018-06-21T11:17:28.949Z,6.10
2018-06-21T11:18:20.756Z,5.70
2018-06-21T11:19:29.609Z,6.70
2018-06-21T11:20:21.318Z,6.20
2018-06-21T11:21:30.214Z,6.50
2018-06-21T11:22:30.586Z,5.30
2018-06-21T11:23:31.006Z,5.00
2018-06-21T11:24:22.745Z,5.00
2018-06-21T11:25:32.618Z,5.90
2018-06-21T11:26:31.876Z,5.20
2018-06-21T11:27:23.647Z,4.90
2018-06-21T11:28:32.459Z,5.40
2018-06-21T11:29:24.260Z,5.40
2018-06-21T11:30:33.155Z,5.60
2018-06-21T11:31:24.835Z,5.50
2018-06-21T11:32:25.078Z,6.20
2018-06-21T11:33:25.325Z,5.20
2018-06-21T11:34:25.553Z,5.20
2018-06-21T11:35:25.812Z,4.70
2018-06-21T11:36:26.698Z,5.30
2018-06-21T11:37:26.371Z,4.90
2018-06-21T11:38:26.637Z,5.60
2018-06-21T11:39:26.877Z,5.30
2018-06-21T11:40:27.124Z,6.40
2018-06-21T11:41:27.368Z,4.70
2018-06-21T11:42:27.603Z,7.40
2018-06-21T11:43:27.852Z,5.20
2018-06-21T11:44:28.104Z,5.00
2018-06-21T11:45:28.367Z,6.00
2018-06-21T11:46:28.631Z,5.20
2018-06-21T11:47:28.850Z,7.60
2018-06-21T11:48:29.092Z,5.30
2018-06-21T11:49:29.338Z,5.70
2018-06-21T11:50:29.587Z,4.50
2018-06-21T11:51:29.828Z,5.80
2018-06-21T11:52:30.070Z,4.50
2018-06-21T11:53:30.311Z,4.80
2018-06-21T11:54:30.568Z,6.90
2018-06-21T11:55:30.828Z,3.80
2018-06-21T11:56:31.166Z,6.70
2018-06-21T11:57:31.339Z,6.00
2018-06-21T11:58:31.584Z,4.10
2018-06-21T11:59:31.840Z,4.00
2018-06-21T12:00:32.085Z,4.10
2018-06-21T12:01:32.335Z,6.10
2018-06-21T12:02:32.577Z,2.70
2018-06-21T12:03:32.843Z,2.20
2018-06-21T12:04:33.117Z,2.50
2018-06-21T12:05:33.357Z,4.20
2018-06-21T12:06:33.605Z,3.90
2018-06-21T12:07:33.853Z,2.50
2018-06-21T12:08:34.107Z,5.00
2018-06-21T12:09:34.345Z,4.80
2018-06-21T12:10:34.613Z,6.20
2018-06-21T12:11:34.860Z,3.70
2018-06-21T12:12:44.736Z,2.20
2018-06-21T12:13:35.374Z,5.30
2018-06-21T12:14:35.683Z,4.30
2018-06-21T12:15:35.836Z,2.50
2018-06-21T12:16:36.113Z,2.70
2018-06-21T12:17:36.344Z,4.90
2018-06-21T12:18:36.634Z,4.40
2018-06-21T12:19:36.842Z,2.30
2018-06-21T12:20:37.113Z,2.00
2018-06-21T12:21:37.323Z,3.40
2018-06-21T12:22:47.219Z,4.80
2018-06-21T12:23:37.814Z,4.80
2018-06-21T12:24:38.085Z,6.90
2018-06-21T12:25:38.301Z,2.10
2018-06-21T12:26:38.554Z,3.40
2018-06-21T12:27:38.811Z,4.50
2018-06-21T12:28:47.709Z,3.60
2018-06-21T12:29:39.554Z,3.20
2018-06-21T12:30:39.685Z,3.90
2018-06-21T12:31:48.554Z,2.10
2018-06-21T12:32:40.330Z,4.90
2018-06-21T12:33:40.584Z,3.00
2018-06-21T12:34:40.800Z,3.00
2018-06-21T12:35:41.045Z,2.90
2018-06-21T12:36:50.938Z,3.90
2018-06-21T12:37:41.576Z,2.70
2018-06-21T12:38:41.803Z,3.60
2018-06-21T12:39:42.021Z,2.90
2018-06-21T12:40:42.275Z,7.90
2018-06-21T12:41:42.523Z,4.00
2018-06-21T12:42:42.766Z,2.60
2018-06-21T12:43:51.666Z,5.20
2018-06-21T12:44:43.423Z,2.50
2018-06-21T12:45:43.674Z,4.90
2018-06-21T12:46:43.926Z,4.60
2018-06-21T12:47:52.817Z,3.70
2018-06-21T12:48:52.192Z,2.40
2018-06-21T12:49:44.864Z,4.60
2018-06-21T12:50:45.105Z,2.40
2018-06-21T12:51:45.359Z,3.10
2018-06-21T12:52:45.605Z,3.50
2018-06-21T12:53:45.860Z,2.20
2018-06-21T12:54:46.116Z,2.80
2018-06-21T12:55:46.350Z,1.90
2018-06-21T12:56:46.604Z,1.20
2018-06-21T12:57:46.856Z,4.10
2018-06-21T12:58:47.118Z,1.80
2018-06-21T12:59:47.357Z,6.40
2018-06-21T13:00:47.615Z,2.30
2018-06-21T13:01:47.869Z,3.10
2018-06-21T13:02:48.143Z,3.00
2018-06-21T13:03:48.367Z,2.70
2018-06-21T13:04:48.648Z,3.80
2018-06-21T13:05:48.901Z,3.60
2018-06-21T13:06:49.227Z,3.70
2018-06-21T13:07:49.542Z,5.50
2018-06-21T13:08:49.893Z,3.40
2018-06-21T13:09:50.110Z,1.60
2018-06-21T13:10:50.447Z,3.80
2018-06-21T13:11:50.880Z,3.70
2018-06-21T13:12:50.908Z,3.10